createdAt,value
2023-01-29T00:00:09.205Z,57.15
2023-01-29T00:02:38.965Z,57.02
2023-01-29T00:05:25.476Z,57.31
2023-01-29T00:07:52.954Z,57.39
2023-01-29T00:10:19.589Z,57.71
2023-01-29T00:12:46.230Z,57.47
2023-01-29T00:15:12.892Z,58.16
2023-01-29T00:17:39.548Z,57.73
2023-01-29T00:20:06.599Z,58.39
2023-01-29T00:22:33.281Z,58.38
2023-01-29T00:24:59.946Z,58.46
2023-01-29T00:27:26.596Z,57.97
2023-01-29T00:29:53.236Z,58.38
2023-01-29T00:32:20.094Z,58.23
2023-01-29T00:34:46.815Z,57.88
2023-01-29T00:37:13.473Z,57.90
2023-01-29T00:39:47.960Z,58.11
2023-01-29T00:42:14.925Z,57.62
2023-01-29T00:44:41.602Z,57.66
2023-01-29T00:47:08.259Z,58.12
2023-01-29T00:49:34.918Z,58.81
2023-01-29T00:52:01.569Z,59.04
2023-01-29T00:54:28.194Z,59.21
2023-01-29T00:56:54.819Z,59.03
2023-01-29T00:59:21.454Z,59.35
2023-01-29T01:01:48.176Z,59.23
2023-01-29T01:04:14.882Z,59.20
2023-01-29T01:06:43.021Z,59.47
2023-01-29T01:09:09.917Z,59.23
2023-01-29T01:11:36.583Z,58.99
2023-01-29T01:14:03.228Z,59.03
2023-01-29T01:16:29.900Z,58.64
2023-01-29T01:18:56.665Z,58.66
2023-01-29T01:21:23.297Z,58.88
2023-01-29T01:23:49.937Z,58.39
2023-01-29T01:26:16.635Z,59.34
2023-01-29T01:28:43.270Z,59.18
2023-01-29T01:31:10.871Z,58.95
2023-01-29T01:33:37.610Z,58.88
2023-01-29T01:36:04.605Z,59.12
2023-01-29T01:38:31.264Z,58.26
2023-01-29T01:40:57.909Z,58.03
2023-01-29T01:43:24.590Z,58.25
2023-01-29T01:45:51.262Z,58.45
2023-01-29T01:48:25.027Z,59.53
2023-01-29T01:50:59.519Z,59.70
2023-01-29T01:53:29.123Z,60.20
2023-01-29T01:55:59.624Z,60.21
2023-01-29T01:58:30.941Z,60.39
2023-01-29T02:00:57.683Z,60.49
2023-01-29T02:03:24.471Z,60.85
2023-01-29T02:05:51.125Z,60.72
2023-01-29T02:08:20.488Z,60.50
2023-01-29T02:10:47.516Z,60.27
2023-01-29T02:13:14.536Z,60.94
2023-01-29T02:15:41.167Z,61.24
2023-01-29T02:18:08.297Z,61.29
2023-01-29T02:20:34.940Z,61.19
2023-01-29T02:23:21.121Z,61.41
2023-01-29T02:26:00.093Z,61.57
2023-01-29T02:28:29.665Z,61.48
2023-01-29T02:31:09.964Z,61.53
2023-01-29T02:34:01.626Z,61.27
2023-01-29T02:36:37.069Z,61.39
2023-01-29T02:39:13.249Z,61.17
2023-01-29T02:42:01.063Z,61.46
2023-01-29T02:44:37.211Z,61.53
2023-01-29T02:47:05.839Z,61.57
2023-01-29T02:49:59.885Z,61.88
2023-01-29T02:52:29.644Z,61.93
2023-01-29T02:55:06.811Z,62.14
2023-01-29T02:57:35.936Z,61.77
2023-01-29T03:00:09.938Z,61.87
2023-01-29T03:02:56.843Z,61.80
2023-01-29T03:05:37.064Z,61.63
2023-01-29T03:08:07.181Z,61.42
2023-01-29T03:10:40.421Z,61.62
2023-01-29T03:13:12.265Z,61.38
2023-01-29T03:15:43.418Z,61.95
2023-01-29T03:18:12.458Z,61.86
2023-01-29T03:20:47.857Z,62.44
2023-01-29T03:23:19.753Z,62.33
2023-01-29T03:25:46.418Z,62.68
2023-01-29T03:28:15.178Z,62.77
2023-01-29T03:30:50.014Z,62.67
2023-01-29T03:33:16.667Z,62.59
2023-01-29T03:36:10.664Z,62.29
2023-01-29T03:38:37.317Z,61.89
2023-01-29T03:41:03.878Z,61.43
2023-01-29T03:43:36.339Z,61.27
2023-01-29T03:46:11.678Z,61.85
2023-01-29T03:48:51.587Z,61.65
2023-01-29T03:51:21.131Z,61.51
2023-01-29T03:53:49.131Z,61.37
2023-01-29T03:56:26.421Z,61.82
2023-01-29T03:58:59.159Z,62.74
2023-01-29T04:01:29.188Z,63.32
2023-01-29T04:03:58.897Z,63.41
2023-01-29T04:06:27.411Z,63.53
2023-01-29T04:08:59.265Z,62.88
2023-01-29T04:11:25.913Z,63.11
2023-01-29T04:13:52.560Z,63.16
2023-01-29T04:16:33.401Z,62.70
2023-01-29T04:19:00.139Z,62.90
2023-01-29T04:21:26.971Z,62.46
2023-01-29T04:23:53.666Z,62.49
2023-01-29T04:26:34.916Z,62.81
2023-01-29T04:29:52.534Z,62.37
2023-01-29T04:32:26.121Z,62.81
2023-01-29T04:35:21.704Z,62.29
2023-01-29T04:38:03.334Z,62.05
2023-01-29T04:40:35.427Z,61.56
2023-01-29T04:43:09.706Z,61.13
2023-01-29T04:45:43.001Z,61.20
2023-01-29T04:48:26.257Z,61.24
2023-01-29T04:51:15.709Z,61.19
2023-01-29T04:53:55.815Z,60.97
2023-01-29T04:56:31.395Z,60.93
2023-01-29T04:59:02.211Z,60.67
2023-01-29T05:01:28.899Z,61.28
2023-01-29T05:03:55.569Z,60.83
2023-01-29T05:06:22.213Z,60.73
2023-01-29T05:08:48.847Z,60.71
2023-01-29T05:11:15.621Z,60.83
2023-01-29T05:13:42.259Z,61.29
2023-01-29T05:16:22.395Z,61.51
2023-01-29T05:18:49.073Z,61.71
2023-01-29T05:21:15.743Z,61.99
2023-01-29T05:23:42.379Z,62.07
2023-01-29T05:26:09.035Z,62.65
2023-01-29T05:28:35.740Z,62.93
2023-01-29T05:31:02.452Z,63.03
2023-01-29T05:33:30.186Z,62.95
2023-01-29T05:35:57.221Z,62.98
2023-01-29T05:38:23.870Z,62.83
2023-01-29T05:40:50.557Z,63.29
2023-01-29T05:43:24.363Z,63.48
2023-01-29T05:45:58.278Z,63.06
2023-01-29T05:48:25.474Z,62.75
2023-01-29T05:50:52.154Z,62.61
2023-01-29T05:53:18.821Z,62.85
2023-01-29T05:55:46.082Z,62.76
2023-01-29T05:58:12.812Z,62.58
2023-01-29T06:00:39.477Z,61.75
2023-01-29T06:03:06.223Z,61.64
2023-01-29T06:05:32.897Z,61.41
2023-01-29T06:07:59.559Z,62.17
2023-01-29T06:10:26.217Z,61.91
2023-01-29T06:12:52.916Z,61.71
2023-01-29T06:15:19.553Z,62.19
2023-01-29T06:17:46.196Z,61.81
2023-01-29T06:20:12.870Z,61.36
2023-01-29T06:22:39.542Z,61.88
2023-01-29T06:25:06.849Z,61.95
2023-01-29T06:27:33.510Z,61.96
2023-01-29T06:30:00.177Z,62.06
2023-01-29T06:32:27.601Z,61.84
2023-01-29T06:34:54.321Z,61.85
2023-01-29T06:37:21.267Z,62.00
2023-01-29T06:39:47.898Z,62.31
2023-01-29T06:42:14.528Z,62.30
2023-01-29T06:44:41.189Z,62.27
2023-01-29T06:47:07.818Z,62.07
2023-01-29T06:49:34.458Z,62.01
2023-01-29T06:52:01.233Z,62.15
2023-01-29T06:54:27.867Z,62.09
2023-01-29T06:56:54.549Z,61.65
2023-01-29T06:59:21.282Z,62.06
2023-01-29T07:01:48.068Z,61.39
2023-01-29T07:04:14.771Z,61.46
2023-01-29T07:06:41.569Z,62.25
2023-01-29T07:09:08.231Z,62.10
2023-01-29T07:11:35.077Z,62.85
2023-01-29T07:14:01.770Z,62.71
2023-01-29T07:16:28.474Z,63.19
2023-01-29T07:18:55.332Z,62.43
2023-01-29T07:21:22.004Z,62.54
2023-01-29T07:23:48.686Z,62.38
2023-01-29T07:26:15.356Z,62.13
2023-01-29T07:28:41.981Z,62.76
2023-01-29T07:31:08.661Z,62.47
2023-01-29T07:33:35.366Z,62.48
2023-01-29T07:36:02.020Z,62.62
2023-01-29T07:38:28.691Z,62.33
2023-01-29T07:40:55.362Z,62.00
2023-01-29T07:43:21.989Z,62.17
2023-01-29T07:45:48.656Z,62.95
2023-01-29T07:48:15.371Z,63.36
2023-01-29T07:50:42.077Z,63.69
2023-01-29T07:53:12.425Z,64.90
2023-01-29T07:55:39.081Z,65.41
2023-01-29T07:58:05.772Z,64.97
2023-01-29T08:00:32.515Z,65.01
2023-01-29T08:03:06.403Z,63.28
2023-01-29T08:05:33.119Z,62.05
2023-01-29T08:08:06.551Z,61.19
2023-01-29T08:10:35.200Z,60.29
2023-01-29T08:13:01.917Z,57.57
2023-01-29T08:15:28.646Z,55.66
2023-01-29T08:20:41.950Z,49.75
2023-01-29T08:23:15.015Z,46.16
2023-01-29T08:25:41.729Z,43.04
2023-01-29T08:28:08.374Z,40.77
2023-01-29T08:30:35.236Z,37.93
2023-01-29T08:33:02.848Z,35.66
2023-01-29T08:35:29.507Z,34.74
2023-01-29T08:37:57.189Z,33.59
2023-01-29T08:40:23.832Z,32.34
2023-01-29T08:42:50.455Z,31.72
2023-01-29T08:45:17.112Z,31.77
2023-01-29T08:47:47.788Z,30.46
2023-01-29T08:50:15.674Z,30.08
2023-01-29T08:52:43.477Z,28.96
2023-01-29T08:55:10.366Z,27.17
2023-01-29T08:57:37.929Z,25.51
2023-01-29T09:00:08.375Z,25.61
2023-01-29T09:02:35.095Z,24.51
2023-01-29T09:05:01.905Z,24.76
2023-01-29T09:07:29.213Z,24.73
2023-01-29T09:09:55.914Z,24.67
2023-01-29T09:12:22.586Z,23.65
2023-01-29T09:14:49.276Z,24.52
2023-01-29T09:17:15.953Z,23.72
2023-01-29T09:19:42.831Z,23.73
2023-01-29T09:22:11.750Z,22.68
2023-01-29T09:24:38.625Z,22.98
2023-01-29T09:27:05.312Z,22.52
2023-01-29T09:29:33.539Z,21.90
2023-01-29T09:32:01.435Z,21.53
2023-01-29T09:34:28.071Z,21.61
2023-01-29T09:36:54.717Z,22.51
2023-01-29T09:39:21.386Z,21.41
2023-01-29T09:42:03.726Z,20.44
2023-01-29T09:45:07.509Z,21.93
2023-01-29T09:47:35.382Z,21.13
2023-01-29T09:50:13.520Z,21.57
2023-01-29T09:52:50.734Z,22.20
2023-01-29T09:55:27.128Z,21.65
2023-01-29T09:57:57.656Z,23.23
2023-01-29T10:00:33.022Z,25.54
2023-01-29T10:03:17.713Z,27.33
2023-01-29T10:06:00.146Z,29.77
2023-01-29T10:08:41.365Z,30.86
2023-01-29T10:11:29.714Z,31.37
2023-01-29T10:14:13.946Z,32.03
2023-01-29T10:16:59.071Z,32.21
2023-01-29T10:19:40.890Z,33.78
2023-01-29T10:22:29.299Z,33.56
2023-01-29T10:25:06.560Z,33.64
2023-01-29T10:27:34.608Z,34.43
2023-01-29T10:30:02.663Z,35.48
2023-01-29T10:32:29.387Z,35.45
2023-01-29T10:35:02.588Z,34.51
2023-01-29T10:37:40.449Z,35.71
2023-01-29T10:40:22.981Z,36.05
2023-01-29T10:42:53.140Z,36.63
2023-01-29T10:45:25.657Z,37.27
2023-01-29T10:48:05.215Z,37.38
2023-01-29T10:51:19.345Z,37.37
2023-01-29T10:53:54.408Z,40.17
2023-01-29T10:56:51.639Z,37.91
2023-01-29T10:59:27.098Z,39.84
2023-01-29T11:01:58.397Z,40.69
2023-01-29T11:04:26.637Z,41.81
2023-01-29T11:06:53.382Z,40.67
2023-01-29T11:09:32.861Z,41.72
2023-01-29T11:12:02.020Z,42.62
2023-01-29T11:14:35.170Z,44.05
2023-01-29T11:17:01.880Z,44.49
2023-01-29T11:19:41.953Z,43.77
2023-01-29T11:22:15.921Z,43.55
2023-01-29T11:24:42.936Z,43.93
2023-01-29T11:27:17.033Z,43.98
2023-01-29T11:29:46.941Z,45.26
2023-01-29T11:32:26.564Z,45.32
2023-01-29T11:35:06.389Z,45.63
2023-01-29T11:37:35.241Z,44.90
2023-01-29T11:40:02.011Z,42.33
2023-01-29T11:42:31.037Z,43.43
2023-01-29T11:44:57.730Z,42.92
2023-01-29T11:47:29.006Z,42.83
2023-01-29T11:50:00.418Z,43.42
2023-01-29T11:52:40.686Z,42.58
2023-01-29T11:55:11.895Z,42.49
2023-01-29T11:57:40.753Z,42.88
2023-01-29T12:00:29.967Z,42.51
2023-01-29T12:03:16.246Z,42.62
2023-01-29T12:05:53.548Z,43.56
2023-01-29T12:08:20.207Z,43.31
2023-01-29T12:10:46.867Z,43.17
2023-01-29T12:13:18.721Z,42.84
2023-01-29T12:15:45.534Z,43.78
2023-01-29T12:18:33.108Z,43.17
2023-01-29T12:21:04.163Z,43.60
2023-01-29T12:24:00.568Z,43.23
2023-01-29T12:26:30.043Z,43.10
2023-01-29T12:29:18.544Z,43.58
2023-01-29T12:32:17.524Z,44.06
2023-01-29T12:34:48.513Z,44.49
2023-01-29T12:37:21.970Z,44.27
2023-01-29T12:39:49.257Z,44.18
2023-01-29T12:42:20.692Z,44.61
2023-01-29T12:44:48.364Z,44.23
2023-01-29T12:47:34.164Z,43.79
2023-01-29T12:50:03.320Z,44.25
2023-01-29T12:52:56.432Z,43.22
2023-01-29T12:55:41.893Z,42.67
2023-01-29T12:58:22.376Z,43.13
2023-01-29T13:00:51.046Z,44.15
2023-01-29T13:03:32.653Z,44.03
2023-01-29T13:06:05.715Z,43.74
2023-01-29T13:08:35.864Z,44.74
2023-01-29T13:11:06.580Z,43.46
2023-01-29T13:13:35.663Z,43.46
2023-01-29T13:16:03.894Z,43.35
2023-01-29T13:18:56.169Z,43.47
2023-01-29T13:21:25.228Z,43.66
2023-01-29T13:23:53.649Z,43.81
2023-01-29T13:26:21.079Z,43.94
2023-01-29T13:28:47.799Z,42.98
2023-01-29T13:31:33.627Z,43.63
2023-01-29T13:34:16.369Z,43.25
2023-01-29T13:36:44.275Z,43.30
2023-01-29T13:39:24.369Z,43.02
2023-01-29T13:41:51.197Z,44.52
2023-01-29T13:44:33.644Z,44.73
2023-01-29T13:47:03.654Z,43.10
2023-01-29T13:49:41.024Z,44.03
2023-01-29T13:52:20.277Z,43.65
2023-01-29T13:54:54.042Z,43.66
2023-01-29T13:57:55.949Z,44.17
2023-01-29T14:00:22.633Z,43.46
2023-01-29T14:02:54.901Z,43.93
2023-01-29T14:05:30.687Z,43.61
2023-01-29T14:07:58.379Z,44.42
2023-01-29T14:10:25.721Z,44.56
2023-01-29T14:13:01.360Z,44.11
2023-01-29T14:15:29.368Z,44.71
2023-01-29T14:18:02.166Z,44.75
2023-01-29T14:20:45.696Z,44.67
2023-01-29T14:23:23.189Z,45.18
2023-01-29T14:25:49.863Z,45.30
2023-01-29T14:28:21.256Z,45.91
2023-01-29T14:30:48.423Z,45.90
2023-01-29T14:33:26.826Z,46.59
2023-01-29T14:35:53.529Z,46.97
2023-01-29T14:38:20.175Z,46.57
2023-01-29T14:40:46.863Z,46.42
2023-01-29T14:43:17.313Z,46.97
2023-01-29T14:45:43.936Z,47.65
2023-01-29T14:48:10.497Z,47.61
2023-01-29T14:50:37.027Z,47.50
2023-01-29T14:53:12.902Z,47.38
2023-01-29T14:55:43.763Z,47.91
2023-01-29T14:58:15.132Z,47.79
2023-01-29T15:00:43.707Z,48.81
2023-01-29T15:03:32.494Z,48.57
2023-01-29T15:05:59.176Z,48.54
2023-01-29T15:08:29.815Z,48.60
2023-01-29T15:10:57.688Z,48.56
2023-01-29T15:13:35.959Z,49.07
2023-01-29T15:16:16.351Z,48.83
2023-01-29T15:18:43.124Z,49.02
2023-01-29T15:21:14.246Z,49.12
2023-01-29T15:23:40.979Z,49.69
2023-01-29T15:26:11.857Z,50.14
2023-01-29T15:28:38.780Z,49.46
2023-01-29T15:31:07.477Z,49.51
2023-01-29T15:33:34.605Z,50.00
2023-01-29T15:36:07.301Z,50.28
2023-01-29T15:38:34.533Z,49.87
2023-01-29T15:41:02.616Z,50.27
2023-01-29T15:43:30.792Z,50.07
2023-01-29T15:45:59.448Z,49.91
2023-01-29T15:48:32.809Z,49.47
2023-01-29T15:50:59.782Z,49.50
2023-01-29T15:53:33.732Z,49.74
2023-01-29T15:56:00.381Z,49.78
2023-01-29T15:58:31.189Z,50.40
2023-01-29T16:00:58.059Z,50.19
2023-01-29T16:03:26.170Z,50.41
2023-01-29T16:05:53.320Z,50.03
2023-01-29T16:08:20.970Z,50.20
2023-01-29T16:10:48.145Z,51.24
2023-01-29T16:13:22.270Z,51.00
2023-01-29T16:15:58.603Z,50.99
2023-01-29T16:18:29.726Z,50.55
2023-01-29T16:20:56.502Z,49.58
2023-01-29T16:23:30.549Z,50.08
2023-01-29T16:26:02.003Z,49.98
2023-01-29T16:28:28.733Z,50.56
2023-01-29T16:30:57.186Z,49.94
2023-01-29T16:33:23.882Z,50.96
2023-01-29T16:35:51.382Z,51.60
2023-01-29T16:38:29.079Z,51.04
2023-01-29T16:41:07.420Z,50.47
2023-01-29T16:43:49.337Z,51.93
2023-01-29T16:46:20.436Z,52.12
2023-01-29T16:48:47.190Z,51.24
2023-01-29T16:51:17.651Z,52.02
2023-01-29T16:53:59.487Z,52.05
2023-01-29T16:56:27.739Z,51.73
2023-01-29T16:58:54.432Z,52.11
2023-01-29T17:01:22.716Z,52.56
2023-01-29T17:04:00.659Z,51.60
2023-01-29T17:06:27.499Z,51.88
2023-01-29T17:08:54.981Z,51.81
2023-01-29T17:11:46.241Z,51.10
2023-01-29T17:14:12.876Z,51.89
2023-01-29T17:16:56.458Z,50.80
2023-01-29T17:19:23.139Z,50.31
2023-01-29T17:21:49.807Z,50.46
2023-01-29T17:24:16.490Z,50.19
2023-01-29T17:26:43.228Z,49.41
2023-01-29T17:29:13.490Z,49.69
2023-01-29T17:31:40.250Z,49.72
2023-01-29T17:34:11.043Z,50.85
2023-01-29T17:36:37.710Z,51.38
2023-01-29T17:39:18.495Z,52.55
2023-01-29T17:41:47.631Z,51.18
2023-01-29T17:44:14.288Z,51.70
2023-01-29T17:46:40.924Z,51.71
2023-01-29T17:49:27.289Z,50.95
2023-01-29T17:51:54.403Z,51.85
2023-01-29T17:54:21.079Z,50.76
2023-01-29T17:56:47.934Z,50.76
2023-01-29T17:59:19.073Z,51.65
2023-01-29T18:01:46.420Z,52.12
2023-01-29T18:04:13.106Z,52.63
2023-01-29T18:06:40.227Z,52.80
2023-01-29T18:09:07.005Z,51.71
2023-01-29T18:11:33.657Z,52.02
2023-01-29T18:14:01.295Z,52.98
2023-01-29T18:16:40.959Z,53.30
2023-01-29T18:19:16.716Z,52.92
2023-01-29T18:21:43.379Z,53.36
2023-01-29T18:24:10.059Z,53.90
2023-01-29T18:26:36.728Z,53.57
2023-01-29T18:29:04.161Z,52.93
2023-01-29T18:31:31.036Z,52.33
2023-01-29T18:33:57.804Z,52.74
2023-01-29T18:36:24.444Z,52.67
2023-01-29T18:38:51.071Z,52.92
2023-01-29T18:41:17.715Z,52.85
2023-01-29T18:43:44.410Z,53.37
2023-01-29T18:46:11.137Z,53.72
2023-01-29T18:48:37.826Z,52.90
2023-01-29T18:51:04.630Z,52.23
2023-01-29T18:53:31.287Z,53.13
2023-01-29T18:55:58.718Z,53.83
2023-01-29T18:58:33.587Z,55.68
2023-01-29T19:01:03.661Z,56.30
2023-01-29T19:03:30.328Z,56.58
2023-01-29T19:06:01.039Z,56.71
2023-01-29T19:08:27.898Z,57.05
2023-01-29T19:10:54.536Z,56.56
2023-01-29T19:13:21.203Z,57.07
2023-01-29T19:15:49.284Z,56.66
2023-01-29T19:18:15.930Z,57.11
2023-01-29T19:20:42.579Z,57.33
2023-01-29T19:23:09.319Z,57.45
2023-01-29T19:25:39.414Z,57.21
2023-01-29T19:28:06.254Z,57.19
2023-01-29T19:30:32.984Z,58.35
2023-01-29T19:32:59.723Z,59.24
2023-01-29T19:35:26.382Z,59.16
2023-01-29T19:37:53.049Z,58.61
2023-01-29T19:40:19.859Z,59.24
2023-01-29T19:42:46.889Z,58.91
2023-01-29T19:45:13.719Z,59.00
2023-01-29T19:47:43.377Z,58.23
2023-01-29T19:50:10.742Z,58.80
2023-01-29T19:52:52.803Z,58.23
2023-01-29T19:55:20.299Z,59.09
2023-01-29T19:57:47.172Z,58.27
2023-01-29T20:00:14.317Z,60.07
2023-01-29T20:02:41.338Z,59.60
2023-01-29T20:05:08.150Z,59.03
2023-01-29T20:07:34.840Z,59.18
2023-01-29T20:10:01.495Z,58.95
2023-01-29T20:12:28.259Z,59.04
2023-01-29T20:14:54.962Z,58.82
2023-01-29T20:17:21.591Z,58.91
2023-01-29T20:19:48.246Z,59.01
2023-01-29T20:22:14.887Z,59.60
2023-01-29T20:24:41.603Z,58.97
2023-01-29T20:27:11.078Z,59.50
2023-01-29T20:29:38.348Z,58.90
2023-01-29T20:32:05.759Z,59.05
2023-01-29T20:34:32.438Z,59.04
2023-01-29T20:36:59.118Z,59.34
2023-01-29T20:39:25.839Z,58.88
2023-01-29T20:41:52.481Z,59.50
2023-01-29T20:44:19.145Z,59.38
2023-01-29T20:46:46.206Z,60.25
2023-01-29T20:49:12.848Z,60.17
2023-01-29T20:51:39.566Z,59.37
2023-01-29T20:54:06.292Z,60.47
2023-01-29T20:56:37.601Z,59.87
2023-01-29T20:59:06.632Z,59.72
2023-01-29T21:01:33.369Z,58.79
2023-01-29T21:04:00.053Z,58.51
2023-01-29T21:06:26.687Z,59.31
2023-01-29T21:08:53.313Z,57.74
2023-01-29T21:11:20.000Z,58.28
2023-01-29T21:13:46.661Z,59.55
2023-01-29T21:16:13.387Z,59.53
2023-01-29T21:18:40.087Z,58.59
2023-01-29T21:21:06.728Z,58.12
2023-01-29T21:23:33.375Z,57.84
2023-01-29T21:26:06.397Z,58.55
2023-01-29T21:28:33.091Z,58.06
2023-01-29T21:31:06.917Z,57.62
2023-01-29T21:33:33.555Z,58.01
2023-01-29T21:36:00.556Z,58.12
2023-01-29T21:38:27.352Z,58.16
2023-01-29T21:40:59.065Z,58.06
2023-01-29T21:43:25.697Z,58.43
2023-01-29T21:45:56.511Z,58.23
2023-01-29T21:48:23.202Z,58.73
2023-01-29T21:50:50.066Z,58.70
2023-01-29T21:53:17.043Z,58.71
2023-01-29T21:55:43.858Z,59.19
2023-01-29T21:58:10.993Z,59.08
2023-01-29T22:00:38.520Z,59.37
2023-01-29T22:03:05.277Z,59.53
2023-01-29T22:05:32.245Z,59.30
2023-01-29T22:07:58.998Z,58.38
2023-01-29T22:10:25.701Z,59.04
2023-01-29T22:12:52.486Z,58.98
2023-01-29T22:15:19.127Z,59.17
2023-01-29T22:17:45.816Z,58.36
2023-01-29T22:20:13.119Z,58.77
2023-01-29T22:22:39.785Z,58.22
2023-01-29T22:25:06.609Z,58.14
2023-01-29T22:27:33.387Z,57.23
2023-01-29T22:30:00.027Z,57.74
2023-01-29T22:32:26.718Z,57.55
2023-01-29T22:34:53.392Z,57.56
2023-01-29T22:37:20.200Z,58.33
2023-01-29T22:39:46.965Z,58.90
2023-01-29T22:42:13.622Z,59.52
2023-01-29T22:44:40.602Z,60.25
2023-01-29T22:47:07.258Z,61.19
2023-01-29T22:49:33.912Z,61.65
2023-01-29T22:52:00.546Z,62.93
2023-01-29T22:54:27.231Z,62.82
2023-01-29T22:56:53.877Z,62.63
2023-01-29T22:59:20.520Z,63.08
2023-01-29T23:01:47.215Z,63.06
2023-01-29T23:04:13.875Z,63.82
2023-01-29T23:06:40.538Z,63.37
2023-01-29T23:09:07.309Z,62.97
2023-01-29T23:11:33.940Z,63.67
2023-01-29T23:14:00.611Z,63.13
2023-01-29T23:16:28.180Z,63.69
2023-01-29T23:18:55.096Z,63.62
2023-01-29T23:21:22.398Z,62.62
2023-01-29T23:23:49.199Z,62.97
2023-01-29T23:26:15.885Z,63.24
2023-01-29T23:28:42.913Z,62.82
2023-01-29T23:31:09.615Z,63.23
2023-01-29T23:33:36.304Z,62.90
2023-01-29T23:36:02.950Z,62.42
2023-01-29T23:38:29.577Z,61.80
2023-01-29T23:40:56.227Z,61.70
2023-01-29T23:43:22.873Z,61.86
2023-01-29T23:45:49.509Z,60.93
2023-01-29T23:48:16.151Z,61.10
2023-01-29T23:50:42.817Z,60.45
2023-01-29T23:53:09.455Z,60.27
2023-01-29T23:55:36.386Z,60.37
2023-01-29T23:58:03.328Z,60.43
